createdAt,value
2024-03-03T00:02:08.841Z,4.20
2024-03-03T00:04:45.056Z,4.20
2024-03-03T00:07:12.344Z,4.20
2024-03-03T00:09:39.910Z,4.30
2024-03-03T00:12:07.417Z,4.20
2024-03-03T00:14:36.042Z,4.20
2024-03-03T00:17:05.014Z,4.30
2024-03-03T00:19:32.295Z,4.30
2024-03-03T00:21:59.635Z,4.00
2024-03-03T00:24:28.409Z,4.40
2024-03-03T00:26:55.746Z,4.40
2024-03-03T00:29:23.039Z,4.50
2024-03-03T00:31:50.325Z,4.40
2024-03-03T00:34:17.742Z,4.40
2024-03-03T00:36:44.780Z,4.20
2024-03-03T00:39:11.991Z,4.10
2024-03-03T00:41:39.201Z,4.10
2024-03-03T00:44:06.351Z,4.20
2024-03-03T00:46:33.683Z,4.40
2024-03-03T00:49:01.227Z,4.40
2024-03-03T00:51:28.642Z,4.40
2024-03-03T00:53:55.889Z,4.30
2024-03-03T00:56:23.336Z,4.20
2024-03-03T00:58:50.464Z,4.20
2024-03-03T01:01:19.708Z,4.10
2024-03-03T01:03:47.000Z,4.10
2024-03-03T01:06:14.340Z,4.10
2024-03-03T01:08:41.639Z,4.10
2024-03-03T01:11:08.939Z,4.10
2024-03-03T01:13:36.223Z,4.00
2024-03-03T01:16:03.292Z,4.20
2024-03-03T01:18:31.838Z,4.20
2024-03-03T01:20:59.679Z,4.00
2024-03-03T01:23:26.877Z,4.10
2024-03-03T01:25:54.524Z,4.10
2024-03-03T01:28:21.721Z,4.10
2024-03-03T01:30:49.008Z,4.00
2024-03-03T01:33:16.323Z,4.00
2024-03-03T01:35:43.515Z,3.90
2024-03-03T01:38:10.582Z,4.00
2024-03-03T01:40:39.306Z,4.00
2024-03-03T01:43:08.571Z,4.00
2024-03-03T01:45:35.748Z,4.00
2024-03-03T01:48:06.074Z,4.10
2024-03-03T01:50:33.371Z,4.00
2024-03-03T01:53:00.665Z,4.00
2024-03-03T01:55:28.115Z,3.90
2024-03-03T01:58:02.628Z,3.90
2024-03-03T02:00:34.457Z,3.90
2024-03-03T02:03:06.194Z,3.80
2024-03-03T02:05:36.001Z,3.90
2024-03-03T02:08:05.088Z,4.00
2024-03-03T02:10:35.068Z,4.00
2024-03-03T02:13:02.767Z,4.00
2024-03-03T02:15:29.899Z,3.90
2024-03-03T02:17:57.517Z,3.80
2024-03-03T02:20:25.693Z,3.80
2024-03-03T02:22:54.670Z,3.80
2024-03-03T02:25:22.634Z,3.90
2024-03-03T02:27:50.155Z,3.80
2024-03-03T02:30:17.333Z,3.90
2024-03-03T02:32:44.800Z,3.90
2024-03-03T02:35:12.307Z,4.00
2024-03-03T02:37:39.372Z,3.90
2024-03-03T02:40:08.033Z,3.90
2024-03-03T02:42:37.105Z,4.00
2024-03-03T02:45:07.788Z,4.00
2024-03-03T02:47:35.022Z,3.80
2024-03-03T02:50:05.775Z,3.80
2024-03-03T02:52:32.811Z,3.80
2024-03-03T02:55:00.007Z,3.70
2024-03-03T02:57:27.338Z,3.70
2024-03-03T02:59:55.742Z,3.80
2024-03-03T03:02:22.901Z,3.70
2024-03-03T03:04:50.212Z,3.60
2024-03-03T03:07:17.371Z,3.70
2024-03-03T03:09:46.990Z,3.60
2024-03-03T03:12:14.087Z,3.70
2024-03-03T03:14:41.454Z,3.70
2024-03-03T03:17:09.057Z,3.70
2024-03-03T03:19:36.283Z,3.70
2024-03-03T03:22:03.402Z,3.70
2024-03-03T03:24:31.124Z,3.50
2024-03-03T03:26:58.664Z,3.60
2024-03-03T03:29:25.805Z,3.50
2024-03-03T03:31:52.905Z,3.40
2024-03-03T03:34:20.129Z,3.60
2024-03-03T03:36:47.689Z,3.50
2024-03-03T03:39:14.860Z,3.60
2024-03-03T03:41:47.087Z,3.50
2024-03-03T03:44:14.690Z,3.50
2024-03-03T03:46:42.669Z,3.50
2024-03-03T03:49:14.229Z,3.40
2024-03-03T03:51:42.009Z,3.40
2024-03-03T03:54:09.142Z,3.40
2024-03-03T03:56:37.198Z,3.50
2024-03-03T03:59:04.782Z,3.40
2024-03-03T04:01:32.450Z,3.40
2024-03-03T04:04:02.068Z,3.30
2024-03-03T04:06:30.209Z,3.40
2024-03-03T04:08:57.740Z,3.40
2024-03-03T04:11:27.106Z,3.30
2024-03-03T04:13:54.132Z,3.40
2024-03-03T04:16:21.212Z,3.40
2024-03-03T04:18:48.546Z,3.40
2024-03-03T04:21:15.632Z,3.40
2024-03-03T04:23:42.952Z,3.50
2024-03-03T04:26:10.674Z,3.50
2024-03-03T04:28:38.855Z,3.40
2024-03-03T04:31:09.762Z,3.30
2024-03-03T04:33:38.043Z,3.40
2024-03-03T04:36:12.924Z,3.40
2024-03-03T04:38:43.605Z,3.40
2024-03-03T04:41:18.429Z,3.30
2024-03-03T04:43:47.297Z,3.40
2024-03-03T04:46:15.142Z,3.40
2024-03-03T04:48:42.768Z,3.40
2024-03-03T04:51:10.101Z,3.40
2024-03-03T04:53:37.755Z,3.50
2024-03-03T04:56:05.646Z,3.50
2024-03-03T04:58:32.928Z,3.50
2024-03-03T05:01:00.151Z,3.50
2024-03-03T05:03:27.920Z,3.50
2024-03-03T05:05:55.366Z,3.40
2024-03-03T05:08:22.615Z,3.50
2024-03-03T05:10:51.703Z,3.50
2024-03-03T05:13:21.369Z,3.50
2024-03-03T05:15:48.588Z,3.50
2024-03-03T05:18:15.771Z,3.50
2024-03-03T05:20:43.289Z,3.40
2024-03-03T05:23:10.342Z,3.40
2024-03-03T05:25:37.686Z,3.50
2024-03-03T05:28:07.959Z,3.50
2024-03-03T05:30:38.215Z,3.50
2024-03-03T05:33:09.237Z,3.50
2024-03-03T05:35:38.258Z,3.50
2024-03-03T05:38:05.746Z,3.50
2024-03-03T05:40:33.004Z,3.40
2024-03-03T05:43:00.058Z,3.40
2024-03-03T05:45:27.156Z,3.50
2024-03-03T05:47:56.057Z,3.50
2024-03-03T05:50:23.357Z,3.50
2024-03-03T05:52:50.389Z,3.40
2024-03-03T05:55:17.584Z,3.40
2024-03-03T05:57:45.269Z,3.40
2024-03-03T06:00:13.378Z,3.40
2024-03-03T06:02:40.801Z,3.50
2024-03-03T06:05:09.629Z,3.50
2024-03-03T06:07:36.966Z,3.40
2024-03-03T06:10:07.252Z,3.50
2024-03-03T06:12:34.446Z,3.50
2024-03-03T06:15:01.528Z,3.50
2024-03-03T06:17:28.995Z,3.50
2024-03-03T06:19:59.680Z,3.50
2024-03-03T06:22:26.747Z,3.50
2024-03-03T06:24:53.973Z,3.50
2024-03-03T06:27:21.196Z,3.50
2024-03-03T06:29:48.249Z,3.50
2024-03-03T06:32:15.326Z,3.40
2024-03-03T06:34:48.054Z,3.40
2024-03-03T06:37:16.986Z,3.50
2024-03-03T06:39:45.788Z,3.60
2024-03-03T06:42:13.034Z,3.60
2024-03-03T06:44:43.710Z,3.50
2024-03-03T06:47:10.868Z,3.60
2024-03-03T06:49:37.909Z,3.50
2024-03-03T06:52:05.398Z,3.50
2024-03-03T06:54:32.671Z,3.60
2024-03-03T06:56:59.846Z,3.50
2024-03-03T06:59:28.706Z,3.60
2024-03-03T07:01:56.091Z,3.50
2024-03-03T07:04:26.827Z,3.60
2024-03-03T07:06:54.314Z,3.70
2024-03-03T07:09:24.578Z,2.70
2024-03-03T07:11:52.670Z,3.60
2024-03-03T07:14:21.424Z,3.70
2024-03-03T07:16:49.677Z,3.90
2024-03-03T07:19:17.422Z,3.90
2024-03-03T07:21:45.389Z,3.80
2024-03-03T07:24:13.031Z,3.80
2024-03-03T07:26:40.294Z,3.90
2024-03-03T07:29:09.335Z,3.90
2024-03-03T07:31:37.499Z,3.90
2024-03-03T07:34:05.508Z,3.80
2024-03-03T07:36:32.676Z,3.80
2024-03-03T07:39:00.852Z,3.00
2024-03-03T07:41:29.016Z,3.90
2024-03-03T07:43:56.385Z,3.90
2024-03-03T07:46:23.649Z,3.90
2024-03-03T07:48:50.807Z,3.90
2024-03-03T07:51:21.181Z,4.00
2024-03-03T07:53:49.499Z,4.10
2024-03-03T07:56:17.364Z,4.00
2024-03-03T07:58:45.444Z,4.00
2024-03-03T08:01:12.637Z,4.00
2024-03-03T08:03:39.831Z,4.10
2024-03-03T08:06:07.196Z,4.00
2024-03-03T08:08:34.454Z,4.00
2024-03-03T08:11:01.510Z,4.00
2024-03-03T08:13:28.712Z,3.80
2024-03-03T08:15:56.424Z,4.00
2024-03-03T08:18:23.604Z,4.00
2024-03-03T08:20:51.031Z,3.90
2024-03-03T08:23:18.242Z,3.90
2024-03-03T08:25:45.319Z,4.00
2024-03-03T08:28:26.850Z,4.10
2024-03-03T08:30:53.900Z,4.20
2024-03-03T08:33:21.190Z,4.20
2024-03-03T08:35:48.403Z,4.20
2024-03-03T08:38:15.520Z,4.40
2024-03-03T08:40:43.999Z,4.20
2024-03-03T08:43:11.295Z,4.40
2024-03-03T08:45:38.460Z,4.40
2024-03-03T08:48:06.559Z,4.40
2024-03-03T08:50:35.695Z,4.30
2024-03-03T08:53:02.980Z,4.40
2024-03-03T08:55:33.431Z,4.40
2024-03-03T08:58:06.266Z,4.40
2024-03-03T09:00:36.944Z,4.50
2024-03-03T09:03:04.694Z,4.30
2024-03-03T09:05:37.040Z,4.40
2024-03-03T09:08:07.651Z,4.40
2024-03-03T09:10:37.069Z,4.30
2024-03-03T09:13:04.760Z,4.20
2024-03-03T09:15:32.025Z,4.30
2024-03-03T09:18:00.008Z,4.50
2024-03-03T09:20:27.201Z,4.50
2024-03-03T09:22:54.753Z,4.70
2024-03-03T09:25:22.074Z,4.70
2024-03-03T09:27:51.987Z,4.90
2024-03-03T09:30:19.693Z,5.00
2024-03-03T09:32:52.822Z,5.20
2024-03-03T09:35:20.392Z,5.10
2024-03-03T09:37:54.477Z,5.10
2024-03-03T09:40:25.248Z,5.20
2024-03-03T09:45:45.986Z,5.20
2024-03-03T09:48:16.354Z,5.30
2024-03-03T09:53:14.196Z,4.00
2024-03-03T09:55:42.409Z,5.40
2024-03-03T09:58:10.861Z,5.60
2024-03-03T10:00:38.155Z,5.40
2024-03-03T10:03:11.308Z,5.40
2024-03-03T10:05:48.934Z,5.40
2024-03-03T10:08:20.358Z,5.70
2024-03-03T10:10:50.495Z,5.60
2024-03-03T10:13:22.920Z,5.70
2024-03-03T10:16:02.508Z,5.60
2024-03-03T10:18:34.993Z,5.50
2024-03-03T10:21:03.131Z,5.70
2024-03-03T10:23:32.662Z,5.70
2024-03-03T10:26:06.101Z,5.60
2024-03-03T10:28:33.225Z,5.60
2024-03-03T10:31:14.478Z,5.60
2024-03-03T10:33:56.526Z,5.70
2024-03-03T10:36:23.890Z,5.70
2024-03-03T10:38:54.970Z,5.80
2024-03-03T10:41:23.344Z,5.80
2024-03-03T10:43:52.821Z,5.60
2024-03-03T10:46:22.155Z,5.60
2024-03-03T10:48:50.715Z,5.70
2024-03-03T10:51:21.993Z,5.70
2024-03-03T10:53:53.555Z,5.70
2024-03-03T10:56:22.426Z,5.70
2024-03-03T10:58:51.252Z,5.80
2024-03-03T11:01:19.808Z,5.90
2024-03-03T11:03:49.218Z,5.80
2024-03-03T11:06:17.605Z,5.90
2024-03-03T11:08:51.620Z,6.10
2024-03-03T11:11:28.088Z,5.90
2024-03-03T11:14:04.983Z,5.90
2024-03-03T11:16:32.626Z,5.80
2024-03-03T11:19:14.539Z,5.90
2024-03-03T11:21:52.697Z,5.90
2024-03-03T11:24:33.594Z,6.10
2024-03-03T11:27:15.532Z,6.10
2024-03-03T11:29:49.602Z,6.20
2024-03-03T11:32:22.271Z,6.30
2024-03-03T11:34:52.397Z,6.30
2024-03-03T11:37:21.062Z,6.40
2024-03-03T11:40:04.743Z,6.40
2024-03-03T11:42:37.559Z,6.80
2024-03-03T11:45:06.105Z,6.70
2024-03-03T11:47:47.764Z,6.80
2024-03-03T11:50:27.844Z,6.60
2024-03-03T11:52:55.936Z,6.70
2024-03-03T11:55:29.407Z,6.70
2024-03-03T11:57:59.997Z,6.90
2024-03-03T12:00:29.800Z,7.00
2024-03-03T12:03:00.108Z,6.90
2024-03-03T12:05:28.391Z,6.90
2024-03-03T12:07:57.196Z,6.90
2024-03-03T12:10:34.355Z,6.90
2024-03-03T12:13:04.585Z,6.90
2024-03-03T12:15:31.957Z,7.00
2024-03-03T12:18:01.569Z,7.00
2024-03-03T12:20:32.312Z,7.20
2024-03-03T12:23:01.702Z,8.20
2024-03-03T12:25:29.921Z,6.40
2024-03-03T12:28:01.871Z,6.90
2024-03-03T12:30:36.131Z,5.10
2024-03-03T12:33:08.860Z,6.60
2024-03-03T12:35:38.204Z,6.70
2024-03-03T12:38:07.412Z,6.50
2024-03-03T12:40:35.135Z,6.40
2024-03-03T12:43:05.716Z,6.30
2024-03-03T12:45:33.846Z,6.20
2024-03-03T12:48:02.768Z,6.30
2024-03-03T12:50:30.737Z,6.40
2024-03-03T12:52:58.449Z,6.50
2024-03-03T12:55:29.429Z,6.60
2024-03-03T12:57:59.284Z,6.70
2024-03-03T13:00:26.757Z,6.70
2024-03-03T13:02:54.244Z,6.60
2024-03-03T13:05:25.131Z,6.50
2024-03-03T13:07:54.427Z,6.90
2024-03-03T13:10:28.064Z,7.00
2024-03-03T13:12:56.988Z,6.70
2024-03-03T13:15:34.929Z,8.40
2024-03-03T13:18:15.165Z,7.50
2024-03-03T13:20:43.038Z,8.00
2024-03-03T13:23:17.184Z,7.50
2024-03-03T13:25:46.349Z,7.50
2024-03-03T13:28:17.987Z,7.30
2024-03-03T13:31:02.249Z,7.30
2024-03-03T13:33:39.528Z,7.00
2024-03-03T13:36:11.695Z,7.20
2024-03-03T13:38:39.295Z,7.00
2024-03-03T13:46:23.588Z,6.70
2024-03-03T13:51:32.989Z,6.70
2024-03-03T13:54:01.880Z,6.60
2024-03-03T13:56:29.376Z,6.40
2024-03-03T13:58:57.963Z,6.20
2024-03-03T14:01:26.060Z,6.10
2024-03-03T14:03:53.998Z,5.90
2024-03-03T14:06:22.075Z,6.00
2024-03-03T14:08:49.907Z,6.20
2024-03-03T14:11:19.653Z,6.20
2024-03-03T14:13:47.033Z,6.30
2024-03-03T14:16:14.907Z,6.00
2024-03-03T14:18:42.158Z,6.10
2024-03-03T14:21:10.040Z,5.80
2024-03-03T14:23:37.177Z,5.60
2024-03-03T14:26:06.154Z,5.60
2024-03-03T14:28:36.982Z,5.40
2024-03-03T14:31:04.354Z,5.50
2024-03-03T14:33:32.471Z,5.50
2024-03-03T14:36:03.436Z,5.20
2024-03-03T14:38:30.956Z,5.40
2024-03-03T14:40:58.095Z,5.40
2024-03-03T14:46:06.790Z,5.40
2024-03-03T14:48:34.426Z,5.50
2024-03-03T14:51:05.633Z,5.40
2024-03-03T14:53:34.142Z,5.50
2024-03-03T14:56:05.778Z,5.40
2024-03-03T14:58:33.208Z,5.30
2024-03-03T15:01:04.026Z,5.30
2024-03-03T15:03:31.546Z,5.40
2024-03-03T15:06:00.098Z,5.30
2024-03-03T15:08:27.702Z,5.20
2024-03-03T15:13:36.863Z,5.10
2024-03-03T15:16:05.202Z,4.90
2024-03-03T15:18:32.656Z,4.80
2024-03-03T15:20:59.789Z,5.00
2024-03-03T15:23:27.483Z,4.80
2024-03-03T15:25:56.573Z,4.80
2024-03-03T15:28:23.952Z,4.90
2024-03-03T15:30:51.647Z,4.60
2024-03-03T15:33:21.048Z,4.40
2024-03-03T15:35:48.677Z,4.50
2024-03-03T15:38:16.288Z,4.40
2024-03-03T15:40:45.793Z,2.90
2024-03-03T15:43:13.279Z,4.30
2024-03-03T15:45:44.022Z,4.50
2024-03-03T15:48:18.235Z,4.50
2024-03-03T15:50:50.560Z,4.40
2024-03-03T15:53:17.757Z,4.80
2024-03-03T15:55:45.034Z,4.30
2024-03-03T15:58:22.026Z,4.40
2024-03-03T16:00:53.751Z,4.40
2024-03-03T16:03:24.379Z,5.00
2024-03-03T16:05:51.897Z,4.40
2024-03-03T16:08:19.199Z,4.40
2024-03-03T16:10:47.380Z,4.30
2024-03-03T16:13:14.606Z,4.30
2024-03-03T16:15:42.396Z,4.30
2024-03-03T16:18:10.001Z,4.30
2024-03-03T16:20:43.500Z,4.30
2024-03-03T16:23:11.593Z,4.20
2024-03-03T16:25:38.989Z,4.20
2024-03-03T16:28:06.299Z,4.20
2024-03-03T16:30:35.088Z,4.10
2024-03-03T16:33:06.285Z,4.10
2024-03-03T16:35:34.281Z,4.00
2024-03-03T16:38:02.722Z,3.90
2024-03-03T16:40:31.051Z,3.80
2024-03-03T16:43:05.822Z,3.70
2024-03-03T16:45:34.231Z,3.90
2024-03-03T16:48:04.442Z,3.80
2024-03-03T16:50:32.904Z,3.70
2024-03-03T16:53:02.928Z,3.80
2024-03-03T16:55:30.763Z,3.70
2024-03-03T16:58:00.028Z,3.70
2024-03-03T17:00:28.061Z,2.70
2024-03-03T17:02:56.702Z,2.20
2024-03-03T17:05:29.087Z,2.50
2024-03-03T17:07:57.148Z,3.50
2024-03-03T17:10:24.540Z,3.40
2024-03-03T17:12:55.174Z,3.40
2024-03-03T17:15:25.358Z,2.40
2024-03-03T17:17:53.037Z,3.10
2024-03-03T17:20:20.360Z,3.30
2024-03-03T17:22:47.932Z,3.20
2024-03-03T17:25:15.149Z,3.20
2024-03-03T17:27:42.594Z,3.20
2024-03-03T17:30:10.323Z,3.20
2024-03-03T17:32:38.130Z,3.30
2024-03-03T17:35:05.748Z,3.20
2024-03-03T17:37:33.516Z,3.20
2024-03-03T17:40:01.058Z,3.20
2024-03-03T17:42:28.384Z,3.10
2024-03-03T17:44:55.773Z,3.10
2024-03-03T17:47:23.101Z,3.00
2024-03-03T17:49:53.590Z,3.10
2024-03-03T17:52:21.012Z,3.30
2024-03-03T17:54:48.313Z,2.90
2024-03-03T17:57:15.573Z,2.80
2024-03-03T17:59:45.763Z,3.00
2024-03-03T18:02:14.720Z,2.90
2024-03-03T18:12:48.006Z,2.80
2024-03-03T18:15:15.300Z,2.80
2024-03-03T18:17:45.250Z,2.80
2024-03-03T18:20:12.806Z,2.80
2024-03-03T18:22:40.100Z,2.70
2024-03-03T18:25:08.102Z,2.80
2024-03-03T18:27:35.244Z,2.70
2024-03-03T18:30:02.611Z,2.60
2024-03-03T18:32:34.780Z,2.10
2024-03-03T18:35:06.933Z,2.60
2024-03-03T18:37:37.780Z,2.20
2024-03-03T18:40:06.011Z,2.60
2024-03-03T18:45:17.682Z,2.60
2024-03-03T18:47:45.188Z,2.60
2024-03-03T18:50:21.272Z,2.50
2024-03-03T18:52:49.409Z,2.50
2024-03-03T18:55:17.128Z,1.50
2024-03-03T18:57:44.654Z,2.50
2024-03-03T19:02:55.801Z,2.30
2024-03-03T19:05:23.171Z,2.40
2024-03-03T19:07:52.899Z,2.50
2024-03-03T19:10:20.169Z,2.50
2024-03-03T19:12:47.201Z,2.40
2024-03-03T19:15:14.459Z,2.40
2024-03-03T19:17:42.192Z,2.40
2024-03-03T19:20:13.413Z,2.50
2024-03-03T19:22:40.721Z,2.50
2024-03-03T19:25:09.137Z,2.40
2024-03-03T19:27:36.223Z,2.50
2024-03-03T19:30:07.246Z,2.50
2024-03-03T19:32:34.424Z,2.60
2024-03-03T19:35:02.157Z,2.50
2024-03-03T19:37:36.018Z,3.20
2024-03-03T19:40:06.805Z,2.40
2024-03-03T19:42:33.893Z,2.50
2024-03-03T19:45:00.928Z,2.60
2024-03-03T19:47:28.162Z,2.60
2024-03-03T19:52:38.547Z,2.60
2024-03-03T19:55:08.467Z,2.60
2024-03-03T19:57:36.461Z,2.50
2024-03-03T20:00:15.840Z,4.60
2024-03-03T20:02:44.205Z,2.50
2024-03-03T20:05:11.302Z,2.60
2024-03-03T20:07:38.642Z,2.60
2024-03-03T20:10:08.238Z,2.60
2024-03-03T20:12:35.332Z,2.60
2024-03-03T20:15:03.442Z,2.60
2024-03-03T20:17:30.943Z,2.70
2024-03-03T20:19:59.010Z,2.70
2024-03-03T20:22:27.130Z,2.70
2024-03-03T20:24:54.415Z,2.70
2024-03-03T20:27:22.711Z,2.60
2024-03-03T20:29:51.939Z,2.60
2024-03-03T20:32:21.589Z,3.80
2024-03-03T20:34:52.401Z,2.60
2024-03-03T20:37:19.357Z,2.70
2024-03-03T20:39:48.174Z,2.70
2024-03-03T20:42:15.436Z,2.70
2024-03-03T20:44:43.658Z,2.80
2024-03-03T20:47:10.752Z,2.70
2024-03-03T20:49:38.026Z,2.80
2024-03-03T20:52:05.331Z,2.70
2024-03-03T20:54:32.442Z,2.70
2024-03-03T20:56:59.662Z,2.60
2024-03-03T20:59:26.673Z,2.60
2024-03-03T21:01:53.854Z,2.60
2024-03-03T21:04:21.218Z,2.50
2024-03-03T21:06:48.237Z,2.50
2024-03-03T21:09:15.381Z,2.50
2024-03-03T21:11:42.672Z,2.50
2024-03-03T21:14:10.145Z,2.50
2024-03-03T21:16:37.945Z,2.50
2024-03-03T21:19:05.753Z,2.40
2024-03-03T21:21:32.744Z,2.40
2024-03-03T21:23:59.875Z,2.30
2024-03-03T21:26:26.990Z,2.30
2024-03-03T21:28:53.955Z,2.30
2024-03-03T21:31:21.881Z,2.30
2024-03-03T21:33:53.627Z,2.30
2024-03-03T21:36:20.853Z,2.30
2024-03-03T21:38:48.329Z,2.30
2024-03-03T21:41:22.109Z,2.20
2024-03-03T21:43:49.560Z,2.30
2024-03-03T21:46:17.085Z,2.30
2024-03-03T21:48:44.770Z,2.10
2024-03-03T21:51:18.388Z,2.20
2024-03-03T21:53:48.518Z,2.20
2024-03-03T21:56:22.299Z,2.10
2024-03-03T21:58:49.710Z,2.20
2024-03-03T22:01:17.129Z,2.10
2024-03-03T22:03:48.050Z,2.10
2024-03-03T22:06:15.469Z,2.00
2024-03-03T22:08:43.157Z,2.10
2024-03-03T22:11:10.564Z,2.00
2024-03-03T22:13:41.650Z,2.00
2024-03-03T22:16:14.441Z,2.00
2024-03-03T22:18:44.771Z,2.00
2024-03-03T22:21:13.542Z,2.00
2024-03-03T22:23:40.657Z,2.00
2024-03-03T22:26:07.921Z,2.00
2024-03-03T22:28:35.557Z,2.00
2024-03-03T22:31:02.989Z,2.00
2024-03-03T22:33:30.256Z,0.30
2024-03-03T22:35:57.529Z,2.00
2024-03-03T22:38:26.820Z,2.00
2024-03-03T22:40:53.967Z,2.00
2024-03-03T22:43:21.242Z,1.90
2024-03-03T22:45:48.698Z,2.00
2024-03-03T22:48:15.890Z,1.90
2024-03-03T22:50:43.208Z,1.90
2024-03-03T22:53:10.436Z,1.90
2024-03-03T22:55:37.772Z,1.40
2024-03-03T22:58:05.304Z,1.90
2024-03-03T23:00:34.026Z,2.10
2024-03-03T23:03:05.106Z,1.80
2024-03-03T23:05:32.360Z,1.90
2024-03-03T23:07:59.459Z,2.00
2024-03-03T23:10:27.953Z,1.90
2024-03-03T23:12:55.249Z,1.80
2024-03-03T23:15:23.699Z,1.80
2024-03-03T23:17:51.014Z,1.80
2024-03-03T23:20:18.224Z,1.80
2024-03-03T23:22:45.285Z,1.90
2024-03-03T23:25:12.822Z,1.90
2024-03-03T23:27:40.089Z,2.00
2024-03-03T23:30:09.244Z,0.30
2024-03-03T23:32:37.143Z,2.00
2024-03-03T23:35:04.859Z,1.90
2024-03-03T23:37:32.103Z,2.00
2024-03-03T23:39:59.480Z,1.90
2024-03-03T23:42:27.298Z,1.90
2024-03-03T23:44:54.766Z,1.80
2024-03-03T23:47:23.448Z,1.90
2024-03-03T23:49:51.685Z,0.40
2024-03-03T23:52:18.727Z,1.90
2024-03-03T23:54:53.759Z,1.90
2024-03-03T23:57:25.354Z,2.00
2024-03-03T23:59:52.504Z,1.60
